createdAt,value
2022-10-09T00:01:12.644Z,13.81
2022-10-09T00:04:34.177Z,13.79
2022-10-09T00:07:55.685Z,13.79
2022-10-09T00:11:22.913Z,13.81
2022-10-09T00:14:44.456Z,13.76
2022-10-09T00:18:09.453Z,13.74
2022-10-09T00:21:35.262Z,13.76
2022-10-09T00:24:58.109Z,13.72
2022-10-09T00:28:20.729Z,13.74
2022-10-09T00:31:42.309Z,13.71
2022-10-09T00:35:06.286Z,13.69
2022-10-09T00:38:28.839Z,13.74
2022-10-09T00:41:50.380Z,13.76
2022-10-09T00:45:22.554Z,13.81
2022-10-09T00:48:46.929Z,13.81
2022-10-09T00:52:08.524Z,13.83
2022-10-09T00:55:31.383Z,13.85
2022-10-09T00:58:56.279Z,13.85
2022-10-09T01:02:20.303Z,13.86
2022-10-09T01:06:10.477Z,13.79
2022-10-09T01:09:40.259Z,13.79
2022-10-09T01:13:28.567Z,13.72
2022-10-09T01:16:55.049Z,13.72
2022-10-09T01:20:27.949Z,13.66
2022-10-09T01:23:58.597Z,13.64
2022-10-09T01:27:25.706Z,13.64
2022-10-09T01:30:50.654Z,13.61
2022-10-09T01:34:16.459Z,13.59
2022-10-09T01:37:40.660Z,13.53
2022-10-09T01:41:04.406Z,13.55
2022-10-09T01:44:31.163Z,13.61
2022-10-09T01:47:52.718Z,13.62
2022-10-09T01:51:24.450Z,13.61
2022-10-09T01:54:55.247Z,13.58
2022-10-09T01:58:30.267Z,13.53
2022-10-09T02:01:52.683Z,13.45
2022-10-09T02:05:22.183Z,13.27
2022-10-09T02:08:46.740Z,13.34
2022-10-09T02:12:11.226Z,13.43
2022-10-09T02:15:47.449Z,13.54
2022-10-09T02:19:16.243Z,13.57
2022-10-09T02:22:39.065Z,13.57
2022-10-09T02:26:03.057Z,13.48
2022-10-09T02:29:25.210Z,13.44
2022-10-09T02:32:52.052Z,13.43
2022-10-09T02:36:15.921Z,13.44
2022-10-09T02:39:37.486Z,13.50
2022-10-09T02:43:04.173Z,13.53
2022-10-09T02:46:26.355Z,13.55
2022-10-09T02:49:47.928Z,13.61
2022-10-09T02:53:09.441Z,13.66
2022-10-09T02:56:33.592Z,13.69
2022-10-09T02:59:57.066Z,13.68
2022-10-09T03:03:19.484Z,13.64
2022-10-09T03:06:41.023Z,13.57
2022-10-09T03:10:02.582Z,13.57
2022-10-09T03:13:27.225Z,13.59
2022-10-09T03:16:49.090Z,13.61
2022-10-09T03:20:10.872Z,13.68
2022-10-09T03:23:32.502Z,13.75
2022-10-09T03:26:57.017Z,13.75
2022-10-09T03:30:20.834Z,13.79
2022-10-09T03:33:44.823Z,13.78
2022-10-09T03:37:06.382Z,13.83
2022-10-09T03:40:30.123Z,13.83
2022-10-09T03:43:51.650Z,13.87
2022-10-09T03:47:15.239Z,13.82
2022-10-09T03:50:42.558Z,13.81
2022-10-09T03:54:06.584Z,13.78
2022-10-09T03:57:28.103Z,13.79
2022-10-09T04:00:51.075Z,13.83
2022-10-09T04:04:12.642Z,13.83
2022-10-09T04:07:34.570Z,13.85
2022-10-09T04:11:02.151Z,13.75
2022-10-09T04:14:23.657Z,13.71
2022-10-09T04:17:45.408Z,13.72
2022-10-09T04:21:07.056Z,13.78
2022-10-09T04:24:30.906Z,13.86
2022-10-09T04:27:52.410Z,13.87
2022-10-09T04:31:14.140Z,13.92
2022-10-09T04:34:35.710Z,13.96
2022-10-09T04:37:57.261Z,14.05
2022-10-09T04:41:21.034Z,14.09
2022-10-09T04:44:42.558Z,14.14
2022-10-09T04:48:04.271Z,14.20
2022-10-09T04:51:25.832Z,14.22
2022-10-09T04:54:47.343Z,14.24
2022-10-09T04:58:10.314Z,14.29
2022-10-09T05:01:38.065Z,14.24
2022-10-09T05:04:59.776Z,14.20
2022-10-09T05:08:23.578Z,14.24
2022-10-09T05:11:47.368Z,14.26
2022-10-09T05:15:09.345Z,14.34
2022-10-09T05:18:31.057Z,14.41
2022-10-09T05:21:54.976Z,14.51
2022-10-09T05:25:19.038Z,14.58
2022-10-09T05:28:40.648Z,14.63
2022-10-09T05:32:04.684Z,14.71
2022-10-09T05:35:26.221Z,14.78
2022-10-09T05:38:48.315Z,14.81
2022-10-09T05:42:11.911Z,14.85
2022-10-09T05:45:38.769Z,14.88
2022-10-09T05:49:05.307Z,14.92
2022-10-09T05:52:34.152Z,15.02
2022-10-09T05:56:02.844Z,15.03
2022-10-09T05:59:27.455Z,15.09
2022-10-09T06:02:49.238Z,15.15
2022-10-09T06:06:10.958Z,15.12
2022-10-09T06:09:34.978Z,15.18
2022-10-09T06:12:58.800Z,15.19
2022-10-09T06:16:28.114Z,15.25
2022-10-09T06:19:52.319Z,15.16
2022-10-09T06:23:15.911Z,15.20
2022-10-09T06:26:37.451Z,15.15
2022-10-09T06:29:58.961Z,15.18
2022-10-09T06:33:20.486Z,15.30
2022-10-09T06:36:45.008Z,15.44
2022-10-09T06:40:09.517Z,15.68
2022-10-09T06:43:33.261Z,16.79
2022-10-09T06:46:59.677Z,18.07
2022-10-09T06:50:23.908Z,17.96
2022-10-09T06:53:53.361Z,17.89
2022-10-09T06:57:14.866Z,18.05
2022-10-09T07:00:38.688Z,18.40
2022-10-09T07:04:07.075Z,18.80
2022-10-09T07:07:30.770Z,19.10
2022-10-09T07:10:54.525Z,19.38
2022-10-09T07:14:16.202Z,19.04
2022-10-09T07:17:37.840Z,18.63
2022-10-09T07:21:02.330Z,18.55
2022-10-09T07:24:25.391Z,18.45
2022-10-09T07:27:46.916Z,18.61
2022-10-09T07:31:11.842Z,18.85
2022-10-09T07:34:33.468Z,19.13
2022-10-09T07:37:54.972Z,19.37
2022-10-09T07:41:16.512Z,19.50
2022-10-09T07:44:38.054Z,19.50
2022-10-09T07:48:02.115Z,19.81
2022-10-09T07:51:28.961Z,20.10
2022-10-09T07:54:55.747Z,20.67
2022-10-09T07:58:17.427Z,20.91
2022-10-09T08:01:39.547Z,20.91
2022-10-09T08:05:03.568Z,20.54
2022-10-09T08:08:27.494Z,20.63
2022-10-09T08:11:48.991Z,20.77
2022-10-09T08:15:13.307Z,20.87
2022-10-09T08:18:37.842Z,20.81
2022-10-09T08:22:03.604Z,20.63
2022-10-09T08:25:25.288Z,20.63
2022-10-09T08:28:55.351Z,21.22
2022-10-09T08:32:16.890Z,21.47
2022-10-09T08:35:38.557Z,21.95
2022-10-09T08:39:02.539Z,22.11
2022-10-09T08:42:36.280Z,22.50
2022-10-09T08:46:06.406Z,22.11
2022-10-09T08:49:40.081Z,21.77
2022-10-09T08:53:36.346Z,21.81
2022-10-09T08:57:02.274Z,21.81
2022-10-09T09:00:28.191Z,22.02
2022-10-09T09:04:24.858Z,22.11
2022-10-09T09:07:54.245Z,22.35
2022-10-09T09:11:22.052Z,22.33
2022-10-09T09:15:01.087Z,21.85
2022-10-09T09:18:41.917Z,22.01
2022-10-09T09:22:08.729Z,21.94
2022-10-09T09:25:39.852Z,21.42
2022-10-09T09:29:03.418Z,20.96
2022-10-09T09:32:29.489Z,20.81
2022-10-09T09:35:57.361Z,20.68
2022-10-09T09:40:08.311Z,20.85
2022-10-09T09:43:27.477Z,21.85
2022-10-09T09:46:49.582Z,22.52
2022-10-09T09:50:28.566Z,23.19
2022-10-09T09:53:55.725Z,23.73
2022-10-09T09:57:31.840Z,24.09
2022-10-09T10:01:01.455Z,24.41
2022-10-09T10:04:28.163Z,23.55
2022-10-09T10:07:51.474Z,22.69
2022-10-09T10:11:19.501Z,21.77
2022-10-09T10:14:50.024Z,21.39
2022-10-09T10:18:16.129Z,21.50
2022-10-09T10:21:47.017Z,21.10
2022-10-09T10:25:20.612Z,22.32
2022-10-09T10:29:03.878Z,23.67
2022-10-09T10:32:34.502Z,23.11
2022-10-09T10:35:58.333Z,22.64
2022-10-09T10:39:55.676Z,22.52
2022-10-09T10:43:31.831Z,22.11
2022-10-09T10:47:03.677Z,23.11
2022-10-09T10:50:36.441Z,23.28
2022-10-09T10:54:34.809Z,23.10
2022-10-09T10:58:13.994Z,21.70
2022-10-09T11:01:47.725Z,21.60
2022-10-09T11:05:43.765Z,20.85
2022-10-09T11:09:37.793Z,20.72
2022-10-09T11:13:20.071Z,20.60
2022-10-09T11:17:12.770Z,20.60
2022-10-09T11:21:04.963Z,20.79
2022-10-09T11:24:29.592Z,20.92
2022-10-09T11:28:13.097Z,21.03
2022-10-09T11:31:41.075Z,21.54
2022-10-09T11:35:05.912Z,22.11
2022-10-09T11:38:33.395Z,22.79
2022-10-09T11:41:55.808Z,22.57
2022-10-09T11:45:37.634Z,22.18
2022-10-09T11:49:20.748Z,21.83
2022-10-09T11:52:54.327Z,21.47
2022-10-09T11:56:27.797Z,21.20
2022-10-09T11:59:49.359Z,21.03
2022-10-09T12:03:36.022Z,20.94
2022-10-09T12:07:07.324Z,20.88
2022-10-09T12:10:35.590Z,20.60
2022-10-09T12:14:00.637Z,20.81
2022-10-09T12:17:22.130Z,21.23
2022-10-09T12:20:47.732Z,21.75
2022-10-09T12:24:16.956Z,21.91
2022-10-09T12:27:41.024Z,22.18
2022-10-09T12:31:14.380Z,22.04
2022-10-09T12:34:47.215Z,22.04
2022-10-09T12:38:25.372Z,21.19
2022-10-09T12:41:51.581Z,21.22
2022-10-09T12:45:27.646Z,20.61
2022-10-09T12:48:51.649Z,20.58
2022-10-09T12:52:18.722Z,20.58
2022-10-09T12:55:53.179Z,20.31
2022-10-09T12:59:16.005Z,20.30
2022-10-09T13:02:37.635Z,20.44
2022-10-09T13:05:59.605Z,20.61
2022-10-09T13:09:34.240Z,20.65
2022-10-09T13:12:59.325Z,20.75
2022-10-09T13:16:22.150Z,20.89
2022-10-09T13:19:53.028Z,20.82
2022-10-09T13:23:33.563Z,20.89
2022-10-09T13:26:55.174Z,21.12
2022-10-09T13:30:19.153Z,21.36
2022-10-09T13:33:40.757Z,21.39
2022-10-09T13:37:02.261Z,21.47
2022-10-09T13:40:26.263Z,21.58
2022-10-09T13:43:53.067Z,21.50
2022-10-09T13:47:20.768Z,21.43
2022-10-09T13:50:48.188Z,21.19
2022-10-09T13:54:11.986Z,21.08
2022-10-09T13:57:33.561Z,20.96
2022-10-09T14:00:55.867Z,20.87
2022-10-09T14:04:17.884Z,20.79
2022-10-09T14:07:42.035Z,20.84
2022-10-09T14:11:06.012Z,20.64
2022-10-09T14:14:29.789Z,20.54
2022-10-09T14:17:51.610Z,20.60
2022-10-09T14:21:17.391Z,20.52
2022-10-09T14:24:39.287Z,20.26
2022-10-09T14:28:00.863Z,20.08
2022-10-09T14:31:25.360Z,20.03
2022-10-09T14:34:49.235Z,20.03
2022-10-09T14:38:12.980Z,20.03
2022-10-09T14:41:37.934Z,20.03
2022-10-09T14:44:59.668Z,19.95
2022-10-09T14:48:23.285Z,19.87
2022-10-09T14:51:47.601Z,19.62
2022-10-09T14:55:09.364Z,19.64
2022-10-09T14:58:35.945Z,19.55
2022-10-09T15:01:59.027Z,19.51
2022-10-09T15:05:20.534Z,19.57
2022-10-09T15:08:42.540Z,19.54
2022-10-09T15:12:06.281Z,19.58
2022-10-09T15:15:32.464Z,19.47
2022-10-09T15:18:55.525Z,19.48
2022-10-09T15:22:19.310Z,19.47
2022-10-09T15:25:50.093Z,19.37
2022-10-09T15:29:12.166Z,19.30
2022-10-09T15:32:33.709Z,19.23
2022-10-09T15:35:55.286Z,19.02
2022-10-09T15:39:16.799Z,18.85
2022-10-09T15:42:41.557Z,18.77
2022-10-09T15:46:03.528Z,18.77
2022-10-09T15:49:27.393Z,18.68
2022-10-09T15:52:49.278Z,18.58
2022-10-09T15:56:16.880Z,18.52
2022-10-09T15:59:41.314Z,18.48
2022-10-09T16:03:08.642Z,18.40
2022-10-09T16:06:32.428Z,18.37
2022-10-09T16:09:56.859Z,18.35
2022-10-09T16:13:21.657Z,18.31
2022-10-09T16:16:43.250Z,18.22
2022-10-09T16:20:05.264Z,18.15
2022-10-09T16:23:26.900Z,18.05
2022-10-09T16:26:51.082Z,17.98
2022-10-09T16:30:13.949Z,17.97
2022-10-09T16:33:35.472Z,17.93
2022-10-09T16:36:59.593Z,17.80
2022-10-09T16:40:37.386Z,17.76
2022-10-09T16:44:14.572Z,17.67
2022-10-09T16:47:38.387Z,17.55
2022-10-09T17:00:19.377Z,17.35
2022-10-09T17:03:43.320Z,17.32
2022-10-09T17:07:04.874Z,17.28
2022-10-09T17:16:18.065Z,17.11
2022-10-09T17:23:05.046Z,16.77
2022-10-09T17:26:28.883Z,16.49
2022-10-09T17:29:50.488Z,16.38
2022-10-09T17:33:16.267Z,16.49
2022-10-09T17:36:42.152Z,16.48
2022-10-09T17:40:03.988Z,16.42
2022-10-09T17:43:25.529Z,16.48
2022-10-09T17:46:47.029Z,16.34
2022-10-09T17:50:09.129Z,16.38
2022-10-09T17:53:31.257Z,16.34
2022-10-09T17:56:52.816Z,16.28
2022-10-09T18:00:22.524Z,16.36
2022-10-09T18:03:46.478Z,16.36
2022-10-09T18:07:08.056Z,16.25
2022-10-09T18:10:29.572Z,16.19
2022-10-09T18:13:52.169Z,16.09
2022-10-09T18:17:13.894Z,16.04
2022-10-09T18:20:36.951Z,16.09
2022-10-09T18:23:58.510Z,16.09
2022-10-09T18:27:20.446Z,16.08
2022-10-09T18:30:47.887Z,16.11
2022-10-09T18:34:09.850Z,16.15
2022-10-09T18:37:31.547Z,16.53
2022-10-09T18:40:53.083Z,16.81
2022-10-09T18:44:19.559Z,17.24
2022-10-09T18:47:41.546Z,17.42
2022-10-09T18:51:04.547Z,17.45
2022-10-09T18:54:27.460Z,17.18
2022-10-09T18:57:49.132Z,16.81
2022-10-09T19:01:13.341Z,16.30
2022-10-09T19:04:39.696Z,15.53
2022-10-09T19:08:01.198Z,15.12
2022-10-09T19:11:22.755Z,14.74
2022-10-09T19:14:45.249Z,15.00
2022-10-09T19:18:06.802Z,15.22
2022-10-09T19:21:28.540Z,15.33
2022-10-09T19:24:52.375Z,15.39
2022-10-09T19:28:16.160Z,15.36
2022-10-09T19:31:37.782Z,15.19
2022-10-09T19:34:59.331Z,15.22
2022-10-09T19:38:24.812Z,15.25
2022-10-09T19:41:48.677Z,15.27
2022-10-09T19:45:10.497Z,15.29
2022-10-09T19:48:32.521Z,15.26
2022-10-09T19:51:54.093Z,15.25
2022-10-09T19:55:16.496Z,14.88
2022-10-09T19:58:44.694Z,14.89
2022-10-09T20:02:07.893Z,14.99
2022-10-09T20:05:29.420Z,14.95
2022-10-09T20:08:53.418Z,14.72
2022-10-09T20:12:19.211Z,14.75
2022-10-09T20:15:43.880Z,14.78
2022-10-09T20:19:05.443Z,14.81
2022-10-09T20:22:29.281Z,14.65
2022-10-09T20:26:12.968Z,14.44
2022-10-09T20:29:34.572Z,14.30
2022-10-09T20:32:59.423Z,14.45
2022-10-09T20:36:24.189Z,14.57
2022-10-09T20:39:46.229Z,14.65
2022-10-09T20:43:09.996Z,14.67
2022-10-09T20:46:36.081Z,14.67
2022-10-09T20:49:57.587Z,14.64
2022-10-09T20:53:19.142Z,14.51
2022-10-09T20:56:44.946Z,14.36
2022-10-09T21:00:07.555Z,14.36
2022-10-09T21:03:29.076Z,14.30
2022-10-09T21:06:50.611Z,14.33
2022-10-09T21:10:12.165Z,14.26
2022-10-09T21:13:39.195Z,14.23
2022-10-09T21:17:03.078Z,14.27
2022-10-09T21:20:24.650Z,14.34
2022-10-09T21:23:50.061Z,14.38
2022-10-09T21:27:11.572Z,14.38
2022-10-09T21:30:41.789Z,14.24
2022-10-09T21:34:03.504Z,14.22
2022-10-09T21:37:25.074Z,14.13
2022-10-09T21:40:49.899Z,13.99
2022-10-09T21:44:11.534Z,14.05
2022-10-09T21:47:35.360Z,14.03
2022-10-09T21:50:57.017Z,14.08
2022-10-09T21:54:18.651Z,14.06
2022-10-09T21:57:40.299Z,14.16
2022-10-09T22:01:02.755Z,14.09
2022-10-09T22:04:24.321Z,14.02
2022-10-09T22:07:45.897Z,13.93
2022-10-09T22:11:10.836Z,13.64
2022-10-09T22:14:32.431Z,13.54
2022-10-09T22:17:53.915Z,13.62
2022-10-09T22:21:16.462Z,13.76
2022-10-09T22:24:38.009Z,13.66
2022-10-09T22:27:59.554Z,13.59
2022-10-09T22:31:24.176Z,13.55
2022-10-09T22:34:45.721Z,13.57
2022-10-09T22:38:07.215Z,13.57
2022-10-09T22:41:33.024Z,13.55
2022-10-09T22:44:56.788Z,13.57
2022-10-09T22:48:18.307Z,13.54
2022-10-09T22:51:42.306Z,13.61
2022-10-09T22:55:04.129Z,13.37
2022-10-09T22:58:26.066Z,13.41
2022-10-09T23:01:56.390Z,13.30
2022-10-09T23:05:17.896Z,13.17
2022-10-09T23:08:43.538Z,13.18
2022-10-09T23:12:05.159Z,13.20
2022-10-09T23:15:26.709Z,13.23
2022-10-09T23:18:48.259Z,13.17
2022-10-09T23:22:09.773Z,13.13
2022-10-09T23:25:31.615Z,13.09
2022-10-09T23:29:02.444Z,13.13
2022-10-09T23:32:26.433Z,13.06
2022-10-09T23:35:47.995Z,13.13
2022-10-09T23:39:09.889Z,13.11
2022-10-09T23:42:31.428Z,13.13
2022-10-09T23:45:57.687Z,13.20
2022-10-09T23:49:19.229Z,13.14
2022-10-09T23:52:42.970Z,12.89
2022-10-09T23:56:29.321Z,12.86
2022-10-09T23:59:50.874Z,12.82
